AAR322 ZGHA-RKSI
Flight info
| Callsign | AAR322 |
|---|---|
| Flight time | N/A |
| Altitude | 35100 |
| Route | K0856S1070 GUD9W GUDRO W56 IDPOG A581 WHA R343 PK A593 AKARA/K0848F350 A593 LAMEN/N0459F350 A593 SADLI Y590 ELGEP Y722 OLMEN OLMEN1Y |
| Aircraft | A321/M-SDE3FGHIRWY/LB1 |
Departure
| Time | 2026-05-01 15:00 |
|---|---|
| Airport | Changsha Huanghua International Airport (ZGHA) |
Arrival
| Time | N/A |
|---|---|
| Airport | Incheon International Airport (RKSI) |
| Time | Latitude | Longitude | Altitude | Speed | Heading |
|---|---|---|---|---|---|
| 2026-05-01 14:17 | 28.18660 | 113.21549 | 214 ft | 0 kts | 357° |
| 2026-05-01 14:52 | 28.18644 | 113.21550 | 214 ft | 3 kts | 357° |
| 2026-05-01 14:52 | 28.18623 | 113.21550 | 217 ft | 3 kts | 5° |
| 2026-05-01 14:52 | 28.18584 | 113.21540 | 218 ft | 3 kts | 27° |
| 2026-05-01 14:53 | 28.18571 | 113.21531 | 214 ft | 1 kts | 38° |
| 2026-05-01 14:53 | 28.18570 | 113.21531 | 214 ft | 0 kts | 38° |
| 2026-05-01 14:55 | 28.18573 | 113.21534 | 215 ft | 3 kts | 47° |
| 2026-05-01 14:55 | 28.18579 | 113.21590 | 213 ft | 11 kts | 89° |
| 2026-05-01 14:55 | 28.18581 | 113.21679 | 213 ft | 12 kts | 87° |
| 2026-05-01 14:56 | 28.18586 | 113.21769 | 214 ft | 11 kts | 78° |
| 2026-05-01 14:56 | 28.18648 | 113.21803 | 214 ft | 12 kts | 2° |
| 2026-05-01 14:56 | 28.18779 | 113.21797 | 216 ft | 27 kts | 356° |
| 2026-05-01 14:56 | 28.18977 | 113.21786 | 214 ft | 28 kts | 356° |
| 2026-05-01 14:57 | 28.19173 | 113.21774 | 214 ft | 28 kts | 357° |
| 2026-05-01 14:57 | 28.19566 | 113.21749 | 218 ft | 28 kts | 356° |
| 2026-05-01 14:57 | 28.19762 | 113.21737 | 218 ft | 28 kts | 356° |
| 2026-05-01 14:58 | 28.19959 | 113.21725 | 214 ft | 28 kts | 357° |
| 2026-05-01 14:58 | 28.20157 | 113.21713 | 219 ft | 28 kts | 356° |
| 2026-05-01 14:58 | 28.20353 | 113.21700 | 216 ft | 28 kts | 357° |
| 2026-05-01 14:58 | 28.20521 | 113.21690 | 217 ft | 20 kts | 356° |
| 2026-05-01 14:59 | 28.20603 | 113.21747 | 218 ft | 14 kts | 86° |
| 2026-05-01 14:59 | 28.20604 | 113.21854 | 219 ft | 13 kts | 107° |
| 2026-05-01 14:59 | 28.20542 | 113.21878 | 218 ft | 6 kts | 176° |
| 2026-05-01 14:59 | 28.20477 | 113.21882 | 220 ft | 21 kts | 177° |
| 2026-05-01 15:00 | 28.19233 | 113.21958 | 217 ft | 148 kts | 177° |
| 2026-05-01 15:00 | 28.18075 | 113.22038 | 396 ft | 176 kts | 176° |
| 2026-05-01 15:00 | 28.16856 | 113.22114 | 1035 ft | 176 kts | 175° |
| 2026-05-01 15:01 | 28.15642 | 113.22179 | 1731 ft | 173 kts | 176° |
| 2026-05-01 15:01 | 28.14442 | 113.22243 | 2280 ft | 176 kts | 177° |
| 2026-05-01 15:01 | 28.13176 | 113.22319 | 2531 ft | 190 kts | 178° |
| 2026-05-01 15:01 | 28.11808 | 113.22406 | 2816 ft | 201 kts | 178° |
| 2026-05-01 15:02 | 28.10398 | 113.22493 | 3405 ft | 202 kts | 179° |
| 2026-05-01 15:02 | 28.09942 | 113.22521 | 3623 ft | 202 kts | 179° |
| 2026-05-01 15:02 | 28.07586 | 113.22666 | 4656 ft | 204 kts | 181° |
| 2026-05-01 15:02 | 28.06164 | 113.22754 | 5214 ft | 206 kts | 181° |
| 2026-05-01 15:03 | 28.04715 | 113.22843 | 5756 ft | 211 kts | 181° |
| 2026-05-01 15:03 | 28.03234 | 113.22934 | 6284 ft | 216 kts | 181° |
| 2026-05-01 15:03 | 28.01721 | 113.23027 | 6784 ft | 220 kts | 182° |
| 2026-05-01 15:03 | 28.00191 | 113.23224 | 7290 ft | 227 kts | 167° |
| 2026-05-01 15:04 | 27.98888 | 113.24308 | 7778 ft | 246 kts | 129° |
| 2026-05-01 15:04 | 27.98356 | 113.26183 | 8246 ft | 260 kts | 99° |
| 2026-05-01 15:04 | 27.98272 | 113.28245 | 8758 ft | 264 kts | 93° |
| 2026-05-01 15:04 | 27.98306 | 113.30332 | 9262 ft | 267 kts | 91° |
| 2026-05-01 15:05 | 27.98368 | 113.32441 | 9748 ft | 270 kts | 91° |
| 2026-05-01 15:05 | 27.98424 | 113.34574 | 10195 ft | 272 kts | 91° |
| 2026-05-01 15:05 | 27.98579 | 113.36717 | 10607 ft | 277 kts | 78° |
| 2026-05-01 15:05 | 27.98989 | 113.38087 | 10881 ft | 279 kts | 64° |
| 2026-05-01 15:06 | 28.00573 | 113.40440 | 11237 ft | 290 kts | 37° |
| 2026-05-01 15:06 | 28.01689 | 113.41301 | 11324 ft | 298 kts | 28° |
| 2026-05-01 15:06 | 28.03531 | 113.42554 | 11431 ft | 319 kts | 28° |
| 2026-05-01 15:06 | 28.05493 | 113.43884 | 11564 ft | 338 kts | 26° |
| 2026-05-01 15:07 | 28.07705 | 113.44919 | 11685 ft | 352 kts | 11° |
| 2026-05-01 15:07 | 28.10161 | 113.45312 | 11819 ft | 365 kts | 360° |
| 2026-05-01 15:07 | 28.12756 | 113.45494 | 11933 ft | 381 kts | 359° |
| 2026-05-01 15:07 | 28.15448 | 113.45676 | 12057 ft | 394 kts | 360° |
| 2026-05-01 15:08 | 28.18217 | 113.45868 | 12409 ft | 402 kts | 360° |
| 2026-05-01 15:08 | 28.21019 | 113.46071 | 12939 ft | 405 kts | 360° |
| 2026-05-01 15:08 | 28.23841 | 113.46280 | 13478 ft | 408 kts | 360° |
| 2026-05-01 15:08 | 28.26687 | 113.46494 | 13995 ft | 411 kts | 360° |
| 2026-05-01 15:09 | 28.29547 | 113.46706 | 14484 ft | 413 kts | 359° |
| 2026-05-01 15:09 | 28.32424 | 113.46913 | 14969 ft | 416 kts | 359° |
| 2026-05-01 15:09 | 28.35327 | 113.47122 | 15453 ft | 419 kts | 359° |
| 2026-05-01 15:09 | 28.38241 | 113.47332 | 15936 ft | 422 kts | 359° |
| 2026-05-01 15:10 | 28.41186 | 113.47540 | 16418 ft | 425 kts | 359° |
| 2026-05-01 15:10 | 28.47127 | 113.47949 | 17362 ft | 431 kts | 359° |
| 2026-05-01 15:10 | 28.50122 | 113.48157 | 17852 ft | 433 kts | 359° |
| 2026-05-01 15:11 | 28.53146 | 113.48369 | 18282 ft | 436 kts | 359° |
| 2026-05-01 15:11 | 28.59236 | 113.48802 | 19020 ft | 442 kts | 359° |
| 2026-05-01 15:11 | 28.62313 | 113.49024 | 19372 ft | 444 kts | 359° |
| 2026-05-01 15:12 | 28.65412 | 113.49247 | 19722 ft | 447 kts | 359° |
| 2026-05-01 15:12 | 28.71664 | 113.49706 | 20398 ft | 453 kts | 359° |
| 2026-05-01 15:12 | 28.74820 | 113.49942 | 20736 ft | 456 kts | 359° |
| 2026-05-01 15:13 | 28.84401 | 113.50638 | 21699 ft | 464 kts | 359° |
| 2026-05-01 15:14 | 28.90871 | 113.51102 | 22327 ft | 469 kts | 359° |
| 2026-05-01 15:14 | 28.94130 | 113.51335 | 22641 ft | 471 kts | 358° |
| 2026-05-01 15:14 | 29.00704 | 113.51804 | 23270 ft | 476 kts | 358° |
| 2026-05-01 15:15 | 29.07338 | 113.52287 | 23826 ft | 480 kts | 359° |
| 2026-05-01 15:15 | 29.14022 | 113.52773 | 24381 ft | 483 kts | 358° |
| 2026-05-01 15:16 | 29.20751 | 113.53256 | 24902 ft | 486 kts | 358° |
| 2026-05-01 15:16 | 29.27521 | 113.53740 | 25418 ft | 489 kts | 359° |
| 2026-05-01 15:17 | 29.34341 | 113.54272 | 25941 ft | 493 kts | 359° |
| 2026-05-01 15:18 | 29.44666 | 113.55210 | 26772 ft | 497 kts | 359° |
| 2026-05-01 15:18 | 29.48160 | 113.55528 | 27159 ft | 496 kts | 359° |
| 2026-05-01 15:19 | 29.58399 | 113.56420 | 28284 ft | 492 kts | 359° |
| 2026-05-01 15:19 | 29.65218 | 113.57011 | 29043 ft | 490 kts | 359° |
| 2026-05-01 15:19 | 29.68616 | 113.57309 | 29414 ft | 489 kts | 359° |
| 2026-05-01 15:20 | 29.75391 | 113.57892 | 30115 ft | 487 kts | 359° |
| 2026-05-01 15:20 | 29.78763 | 113.58187 | 30431 ft | 486 kts | 359° |
| 2026-05-01 15:20 | 29.82132 | 113.58484 | 30744 ft | 485 kts | 359° |
| 2026-05-01 15:21 | 29.85499 | 113.58781 | 31064 ft | 484 kts | 359° |
| 2026-05-01 15:21 | 29.88854 | 113.59074 | 31380 ft | 483 kts | 359° |
| 2026-05-01 15:21 | 29.92203 | 113.59415 | 31683 ft | 485 kts | 3° |
| 2026-05-01 15:21 | 29.95514 | 113.60244 | 31983 ft | 491 kts | 12° |
| 2026-05-01 15:22 | 30.01886 | 113.63226 | 32560 ft | 495 kts | 18° |
| 2026-05-01 15:22 | 30.05046 | 113.64810 | 32861 ft | 495 kts | 18° |
| 2026-05-01 15:22 | 30.08207 | 113.66395 | 33142 ft | 494 kts | 18° |
| 2026-05-01 15:23 | 30.11363 | 113.67974 | 33415 ft | 494 kts | 18° |
| 2026-05-01 15:23 | 30.14515 | 113.69550 | 33695 ft | 494 kts | 18° |
| 2026-05-01 15:23 | 30.17669 | 113.71124 | 33957 ft | 494 kts | 18° |
| 2026-05-01 15:23 | 30.20822 | 113.72695 | 34199 ft | 493 kts | 18° |
| 2026-05-01 15:24 | 30.23975 | 113.74265 | 34436 ft | 493 kts | 18° |
| 2026-05-01 15:24 | 30.27117 | 113.75832 | 34684 ft | 492 kts | 18° |
| 2026-05-01 15:24 | 30.30259 | 113.77405 | 34895 ft | 492 kts | 19° |
| 2026-05-01 15:24 | 30.33398 | 113.78980 | 34952 ft | 493 kts | 19° |
| 2026-05-01 15:25 | 30.39697 | 113.82142 | 34956 ft | 493 kts | 19° |
| 2026-05-01 15:25 | 30.45985 | 113.85311 | 34958 ft | 493 kts | 19° |
| 2026-05-01 15:26 | 30.52282 | 113.88486 | 34957 ft | 493 kts | 19° |
| 2026-05-01 15:26 | 30.58581 | 113.91679 | 34961 ft | 495 kts | 22° |
| 2026-05-01 15:27 | 30.64246 | 113.96305 | 34965 ft | 505 kts | 42° |
| 2026-05-01 15:28 | 30.70465 | 114.06313 | 34970 ft | 510 kts | 56° |
| 2026-05-01 15:28 | 30.74256 | 114.13214 | 34978 ft | 510 kts | 56° |
| 2026-05-01 15:29 | 30.79400 | 114.24019 | 34984 ft | 511 kts | 68° |
| 2026-05-01 15:30 | 30.84469 | 114.39482 | 34992 ft | 511 kts | 69° |
| 2026-05-01 15:31 | 30.91986 | 114.62780 | 34988 ft | 511 kts | 68° |
| 2026-05-01 15:32 | 30.97001 | 114.78257 | 34998 ft | 510 kts | 69° |
| 2026-05-01 15:34 | 31.04435 | 115.01426 | 35025 ft | 509 kts | 69° |